Time;durP1;ratioP1;P1;durP2;ratioP2;P2;SDS_P1;SDS_P2;PMS_P1;PMS_P2;Temp;Humidity;BMP_temperature;BMP_pressure;BME280_temperature;BME280_humidity;BME280_pressure;Samples;Min_cycle;Max_cycle;Signal;HPM_P1;HPM_P2
2024/01/07 00:01:11;;;;;;;;;;;;;;;;;;5074066;28;876;-68
2024/01/07 00:03:36;;;;;;;;;;;;;;;;;;5075932;28;865;-69
2024/01/07 00:06:02;;;;;;;;;;;;;;;;;;5073975;28;1910;-67
2024/01/07 00:08:27;;;;;;;;;;;;;;;;;;5075414;28;999;-67
2024/01/07 00:10:52;;;;;;;;;;;;;;;;;;5074345;28;937;-69
2024/01/07 00:13:17;;;;;;;;;;;;;;;;;;5075520;28;962;-69
2024/01/07 00:15:43;;;;;;;;;;;;;;;;;;5075543;28;1002;-68
2024/01/07 00:18:08;;;;;;;;;;;;;;;;;;5075174;28;953;-68
2024/01/07 00:20:34;;;;;;;;;;;;;;;;;;5074959;28;892;-68
2024/01/07 00:22:59;;;;;;;;;;;;;;;;;;5075166;28;911;-68
2024/01/07 00:25:24;;;;;;;;;;;;;;;;;;5075104;28;1898;-68
2024/01/07 00:27:51;;;;;;;;;;;;;;;;;;5074862;28;888;-68
2024/01/07 00:30:16;;;;;;;;;;;;;;;;;;5074921;28;933;-68
2024/01/07 00:32:42;;;;;;;;;;;;;;;;;;5075174;28;917;-68
2024/01/07 00:35:07;;;;;;;;;;;;;;;;;;5074174;28;896;-68
2024/01/07 00:37:34;;;;;;;;;;;;;;;;;;5073699;28;971;-68
2024/01/07 00:40:00;;;;;;;;;;;;;;;;;;5074782;28;868;-68
2024/01/07 00:42:25;;;;;;;;;;;;;;;;;;5074594;28;1007;-68
2024/01/07 00:44:50;;;;;;;;;;;;;;;;;;5074390;28;1960;-68
2024/01/07 00:47:15;;;;;;;;;;;;;;;;;;5074161;28;998;-69
2024/01/07 00:49:41;;;;;;;;;;;;;;;;;;5074294;28;919;-69
2024/01/07 00:52:06;;;;;;;;;;;;;;;;;;5074734;28;864;-69
2024/01/07 00:54:31;;;;;;;;;;;;;;;;;;5074413;28;1035;-68
2024/01/07 00:56:57;;;;;;;;;;;;;;;;;;5074689;28;832;-68
2024/01/07 00:59:22;;;;;;;;;;;;;;;;;;5074183;28;861;-68
2024/01/07 01:01:47;;;;;;;;;;;;;;;;;;5074022;28;1002;-68
2024/01/07 01:04:13;;;;;;;;;;;;;;;;;;5074285;28;1054;-68
2024/01/07 01:06:38;;;;;;;;;;;;;;;;;;5073966;28;1894;-68
2024/01/07 01:09:03;;;;;;;;;;;;;;;;;;5074490;28;1010;-67
2024/01/07 01:11:29;;;;;;;;;;;;;;;;;;5074515;28;915;-67
2024/01/07 01:13:54;;;;;;;;;;;;;;;;;;5074249;28;979;-67
2024/01/07 01:16:19;;;;;;;;;;;;;;;;;;5074410;28;987;-68
2024/01/07 01:18:44;;;;;;;;;;;;;;;;;;5072506;28;1613;-67
2024/01/07 01:21:09;;;;;;;;;;;;;;;;;;5074022;28;880;-68
2024/01/07 01:23:35;;;;;;;;;;;;;;;;;;5073796;28;895;-68
2024/01/07 01:26:00;;;;;;;;;;;;;;;;;;5073437;28;1901;-68
2024/01/07 01:28:26;;;;;;;;;;;;;;;;;;5074357;28;856;-68
2024/01/07 01:30:51;;;;;;;;;;;;;;;;;;5073995;28;856;-67
2024/01/07 01:33:16;;;;;;;;;;;;;;;;;;5073859;28;774;-68
2024/01/07 01:35:42;;;;;;;;;;;;;;;;;;5073635;28;865;-68
2024/01/07 01:38:07;;;;;;;;;;;;;;;;;;5074024;28;856;-68
2024/01/07 01:40:33;;;;;;;;;;;;;;;;;;5073356;28;1191;-68
2024/01/07 01:42:58;;;;;;;;;;;;;;;;;;5084333;28;1152;-68
2024/01/07 01:45:23;;;;;;;;;;;;;;;;;;5085564;28;1882;-68
2024/01/07 01:47:49;;;;;;;;;;;;;;;;;;5085006;28;1263;-66
2024/01/07 01:50:15;;;;;;;;;;;;;;;;;;5079979;28;1120;-66
2024/01/07 01:52:40;;;;;;;;;;;;;;;;;;5076601;28;1219;-68
2024/01/07 01:55:05;;;;;;;;;;;;;;;;;;5069962;28;1163;-65
2024/01/07 01:57:35;;;;;;;;;;;;;;;;;;5073449;28;1239;-66
2024/01/07 02:00:04;;;;;;;;;;;;;;;;;;5073885;28;832;-66
2024/01/07 02:02:31;;;;;;;;;;;;;;;;;;5072460;28;1365;-67
2024/01/07 02:04:56;;;;;;;;;;;;;;;;;;5074007;28;1897;-66
2024/01/07 02:07:21;;;;;;;;;;;;;;;;;;5072743;28;1071;-66
2024/01/07 02:09:47;;;;;;;;;;;;;;;;;;5074246;28;871;-66
2024/01/07 02:12:12;;;;;;;;;;;;;;;;;;5073844;28;843;-66
2024/01/07 02:14:39;;;;;;;;;;;;;;;;;;5073561;28;789;-68
2024/01/07 02:17:04;;;;;;;;;;;;;;;;;;5072625;28;1206;-65
2024/01/07 02:19:29;;;;;;;;;;;;;;;;;;5073850;28;916;-66
2024/01/07 02:21:54;;;;;;;;;;;;;;;;;;5073194;28;1075;-66
2024/01/07 02:24:20;;;;;;;;;;;;;;;;;;5073409;28;982;-66
2024/01/07 02:26:45;;;;;;;;;;;;;;;;;;5074019;28;1969;-66
2024/01/07 02:29:10;;;;;;;;;;;;;;;;;;5073949;28;1027;-66
2024/01/07 02:31:36;;;;;;;;;;;;;;;;;;5073432;28;994;-65
2024/01/07 02:34:01;;;;;;;;;;;;;;;;;;5072094;28;824;-67
2024/01/07 02:36:26;;;;;;;;;;;;;;;;;;5073912;28;923;-66
2024/01/07 02:38:51;;;;;;;;;;;;;;;;;;5073376;28;934;-65
2024/01/07 02:41:17;;;;;;;;;;;;;;;;;;5073203;28;962;-66
2024/01/07 02:43:42;;;;;;;;;;;;;;;;;;5073090;28;797;-67
2024/01/07 02:46:07;;;;;;;;;;;;;;;;;;5073183;28;1965;-66
2024/01/07 02:48:33;;;;;;;;;;;;;;;;;;5073321;28;935;-67
2024/01/07 02:50:58;;;;;;;;;;;;;;;;;;5073212;28;924;-66
2024/01/07 02:53:23;;;;;;;;;;;;;;;;;;5073746;28;1057;-66
2024/01/07 02:55:48;;;;;;;;;;;;;;;;;;5073567;28;930;-67
2024/01/07 02:58:14;;;;;;;;;;;;;;;;;;5073227;28;832;-67
2024/01/07 03:00:39;;;;;;;;;;;;;;;;;;5073454;28;817;-67
2024/01/07 03:03:04;;;;;;;;;;;;;;;;;;5077369;28;677;-65
2024/01/07 03:05:32;;;;;;;;;;;;;;;;;;5076705;28;1965;-67
2024/01/07 03:07:58;;;;;;;;;;;;;;;;;;5076836;28;970;-67
2024/01/07 03:10:23;;;;;;;;;;;;;;;;;;5076897;28;1055;-67
2024/01/07 03:12:48;;;;;;;;;;;;;;;;;;5076500;28;915;-66
2024/01/07 03:15:13;;;;;;;;;;;;;;;;;;5076441;28;1117;-67
2024/01/07 03:17:39;;;;;;;;;;;;;;;;;;5077087;28;860;-67
2024/01/07 03:20:05;;;;;;;;;;;;;;;;;;5058681;28;2413;-67
2024/01/07 03:22:30;;;;;;;;;;;;;;;;;;5076334;28;841;-67
2024/01/07 03:24:55;;;;;;;;;;;;;;;;;;5076405;28;1958;-66
2024/01/07 03:27:20;;;;;;;;;;;;;;;;;;5076514;28;977;-66
2024/01/07 03:29:46;;;;;;;;;;;;;;;;;;5076018;28;997;-66
2024/01/07 03:32:11;;;;;;;;;;;;;;;;;;5076664;28;841;-67
2024/01/07 03:34:38;;;;;;;;;;;;;;;;;;5076823;28;948;-67
2024/01/07 03:37:03;;;;;;;;;;;;;;;;;;5076297;28;1058;-66
2024/01/07 03:39:31;;;;;;;;;;;;;;;;;;5076911;28;1010;-66
2024/01/07 03:41:57;;;;;;;;;;;;;;;;;;5076807;28;1050;-65
2024/01/07 03:44:22;;;;;;;;;;;;;;;;;;5076945;28;615;-67
2024/01/07 03:46:48;;;;;;;;;;;;;;;;;;5076419;28;1958;-67
2024/01/07 03:49:14;;;;;;;;;;;;;;;;;;5076622;28;860;-67
2024/01/07 03:51:39;;;;;;;;;;;;;;;;;;5076390;28;864;-65
2024/01/07 03:54:04;;;;;;;;;;;;;;;;;;5076233;28;880;-66
2024/01/07 03:56:30;;;;;;;;;;;;;;;;;;5075506;28;983;-66
2024/01/07 03:58:55;;;;;;;;;;;;;;;;;;5075607;28;927;-66
2024/01/07 04:01:20;;;;;;;;;;;;;;;;;;5075329;28;927;-66
2024/01/07 04:03:45;;;;;;;;;;;;;;;;;;5075277;28;979;-67
2024/01/07 04:06:11;;;;;;;;;;;;;;;;;;5075494;28;1960;-67
2024/01/07 04:08:36;;;;;;;;;;;;;;;;;;5076096;28;820;-66
2024/01/07 04:11:02;;;;;;;;;;;;;;;;;;5075616;28;962;-66
2024/01/07 04:13:27;;;;;;;;;;;;;;;;;;5074961;28;939;-66
2024/01/07 04:15:52;;;;;;;;;;;;;;;;;;5074914;28;942;-66
2024/01/07 04:18:17;;;;;;;;;;;;;;;;;;5075354;28;1050;-66
2024/01/07 04:20:43;;;;;;;;;;;;;;;;;;5074880;28;824;-67
2024/01/07 04:23:08;;;;;;;;;;;;;;;;;;5075592;28;895;-66
2024/01/07 04:25:33;;;;;;;;;;;;;;;;;;5074830;28;1945;-66
2024/01/07 04:27:59;;;;;;;;;;;;;;;;;;5074870;28;916;-66
2024/01/07 04:30:24;;;;;;;;;;;;;;;;;;5073547;28;914;-66
2024/01/07 04:32:49;;;;;;;;;;;;;;;;;;5074715;28;880;-66
2024/01/07 04:35:14;;;;;;;;;;;;;;;;;;5075510;28;931;-67
2024/01/07 04:37:40;;;;;;;;;;;;;;;;;;5074961;28;900;-65
2024/01/07 04:40:05;;;;;;;;;;;;;;;;;;5074761;28;896;-66
2024/01/07 04:42:31;;;;;;;;;;;;;;;;;;5074818;28;977;-66
2024/01/07 04:44:56;;;;;;;;;;;;;;;;;;5074560;28;1953;-66
2024/01/07 04:47:31;;;;;;;;;;;;;;;;;;5074869;28;863;-66
2024/01/07 04:49:57;;;;;;;;;;;;;;;;;;5075271;28;840;-67
2024/01/07 04:52:22;;;;;;;;;;;;;;;;;;5074616;28;917;-66
2024/01/07 04:54:48;;;;;;;;;;;;;;;;;;5075032;28;877;-66
2024/01/07 04:57:13;;;;;;;;;;;;;;;;;;5074451;28;1150;-65
2024/01/07 04:59:38;;;;;;;;;;;;;;;;;;5074580;28;1038;-66
2024/01/07 05:02:05;;;;;;;;;;;;;;;;;;5073144;28;1003;-68
2024/01/07 05:04:31;;;;;;;;;;;;;;;;;;5074391;28;844;-66
2024/01/07 05:06:57;;;;;;;;;;;;;;;;;;5074741;28;1971;-66
2024/01/07 05:09:22;;;;;;;;;;;;;;;;;;5074388;28;821;-66
2024/01/07 05:11:47;;;;;;;;;;;;;;;;;;5074542;28;817;-67
2024/01/07 05:14:12;;;;;;;;;;;;;;;;;;5074518;28;840;-65
2024/01/07 05:16:38;;;;;;;;;;;;;;;;;;5075133;28;924;-66
2024/01/07 05:19:03;;;;;;;;;;;;;;;;;;5074523;28;887;-66
2024/01/07 05:21:28;;;;;;;;;;;;;;;;;;5074484;28;891;-66
2024/01/07 05:23:54;;;;;;;;;;;;;;;;;;5073947;28;991;-66
2024/01/07 05:26:19;;;;;;;;;;;;;;;;;;5074397;28;1964;-66
2024/01/07 05:28:44;;;;;;;;;;;;;;;;;;5073935;28;1009;-66
2024/01/07 05:31:16;;;;;;;;;;;;;;;;;;5073867;28;904;-66
2024/01/07 05:33:42;;;;;;;;;;;;;;;;;;5074076;28;872;-67
2024/01/07 05:36:07;;;;;;;;;;;;;;;;;;5074119;28;1036;-66
2024/01/07 05:38:33;;;;;;;;;;;;;;;;;;5072738;28;872;-65
2024/01/07 05:40:58;;;;;;;;;;;;;;;;;;5073719;28;851;-66
2024/01/07 05:43:23;;;;;;;;;;;;;;;;;;5073978;28;880;-66
2024/01/07 05:45:48;;;;;;;;;;;;;;;;;;5073384;28;1963;-66
2024/01/07 05:48:14;;;;;;;;;;;;;;;;;;5074163;28;805;-66
2024/01/07 05:50:39;;;;;;;;;;;;;;;;;;5073730;28;860;-67
2024/01/07 05:53:04;;;;;;;;;;;;;;;;;;5072584;28;915;-67
2024/01/07 05:55:30;;;;;;;;;;;;;;;;;;5074090;28;984;-67
2024/01/07 05:57:56;;;;;;;;;;;;;;;;;;5073716;28;911;-66
2024/01/07 06:00:21;;;;;;;;;;;;;;;;;;5073538;28;879;-67
2024/01/07 06:02:46;;;;;;;;;;;;;;;;;;5074141;28;809;-66
2024/01/07 06:05:11;;;;;;;;;;;;;;;;;;5073438;28;1913;-66
2024/01/07 06:07:37;;;;;;;;;;;;;;;;;;5073816;28;860;-66
2024/01/07 06:10:02;;;;;;;;;;;;;;;;;;5073614;28;982;-66
2024/01/07 06:12:28;;;;;;;;;;;;;;;;;;5073695;28;872;-66
2024/01/07 06:14:53;;;;;;;;;;;;;;;;;;5073365;28;958;-66
2024/01/07 06:17:18;;;;;;;;;;;;;;;;;;5073405;28;836;-66
2024/01/07 06:19:43;;;;;;;;;;;;;;;;;;5073279;28;967;-66
2024/01/07 06:22:09;;;;;;;;;;;;;;;;;;5073465;28;1016;-66
2024/01/07 06:24:34;;;;;;;;;;;;;;;;;;5072461;28;836;-66
2024/01/07 06:27:00;;;;;;;;;;;;;;;;;;5073353;28;1949;-66
2024/01/07 06:29:25;;;;;;;;;;;;;;;;;;5073279;28;801;-66
2024/01/07 06:31:50;;;;;;;;;;;;;;;;;;5073034;28;911;-67
2024/01/07 06:34:15;;;;;;;;;;;;;;;;;;5073393;28;880;-67
2024/01/07 06:36:44;;;;;;;;;;;;;;;;;;5076752;28;876;-67
2024/01/07 06:39:09;;;;;;;;;;;;;;;;;;5077415;28;880;-67
2024/01/07 06:41:35;;;;;;;;;;;;;;;;;;5077481;28;852;-67
2024/01/07 06:44:00;;;;;;;;;;;;;;;;;;5077634;28;926;-67
2024/01/07 06:46:25;;;;;;;;;;;;;;;;;;5077644;28;1905;-66
2024/01/07 06:48:51;;;;;;;;;;;;;;;;;;5076895;28;1030;-66
2024/01/07 06:51:16;;;;;;;;;;;;;;;;;;5076993;28;998;-67
2024/01/07 06:53:41;;;;;;;;;;;;;;;;;;5077245;28;963;-67
2024/01/07 06:56:06;;;;;;;;;;;;;;;;;;5077174;28;829;-67
2024/01/07 06:58:32;;;;;;;;;;;;;;;;;;5077492;28;920;-66
2024/01/07 07:00:57;;;;;;;;;;;;;;;;;;5077111;28;1034;-66
2024/01/07 07:03:23;;;;;;;;;;;;;;;;;;5077414;28;928;-67
2024/01/07 07:05:48;;;;;;;;;;;;;;;;;;5076792;28;1890;-67
2024/01/07 07:08:13;;;;;;;;;;;;;;;;;;5076804;28;943;-66
2024/01/07 07:10:39;;;;;;;;;;;;;;;;;;5077319;28;820;-66
2024/01/07 07:13:04;;;;;;;;;;;;;;;;;;5075853;28;930;-66
2024/01/07 07:15:30;;;;;;;;;;;;;;;;;;5076749;28;844;-67
2024/01/07 07:17:55;;;;;;;;;;;;;;;;;;5076575;28;821;-66
2024/01/07 07:20:20;;;;;;;;;;;;;;;;;;5076552;28;884;-66
2024/01/07 07:22:46;;;;;;;;;;;;;;;;;;5076130;28;884;-65
2024/01/07 07:25:11;;;;;;;;;;;;;;;;;;5076396;28;1874;-65
2024/01/07 07:27:37;;;;;;;;;;;;;;;;;;5076715;28;821;-65
2024/01/07 07:30:03;;;;;;;;;;;;;;;;;;5076362;28;856;-65
2024/01/07 07:32:28;;;;;;;;;;;;;;;;;;5076052;28;932;-65
2024/01/07 07:34:53;;;;;;;;;;;;;;;;;;5076507;28;927;-65
2024/01/07 07:37:18;;;;;;;;;;;;;;;;;;5076336;28;868;-65
2024/01/07 07:39:44;;;;;;;;;;;;;;;;;;5082821;28;1199;-65
2024/01/07 07:42:10;;;;;;;;;;;;;;;;;;5085040;28;1148;-66
2024/01/07 07:44:36;;;;;;;;;;;;;;;;;;5073553;28;1124;-64
2024/01/07 07:47:01;;;;;;;;;;;;;;;;;;5075375;28;1965;-66
2024/01/07 07:49:26;;;;;;;;;;;;;;;;;;5076069;28;1005;-66
2024/01/07 07:51:51;;;;;;;;;;;;;;;;;;5075172;28;895;-66
2024/01/07 07:54:17;;;;;;;;;;;;;;;;;;5076053;28;1037;-66
2024/01/07 07:56:42;;;;;;;;;;;;;;;;;;5075700;28;924;-66
2024/01/07 07:59:08;;;;;;;;;;;;;;;;;;5075696;28;975;-65
2024/01/07 08:01:34;;;;;;;;;;;;;;;;;;5075747;28;1692;-64
2024/01/07 08:03:59;;;;;;;;;;;;;;;;;;5075429;28;818;-68
2024/01/07 08:06:24;;;;;;;;;;;;;;;;;;5075590;28;1870;-66
2024/01/07 08:08:50;;;;;;;;;;;;;;;;;;5075143;28;864;-66
2024/01/07 08:11:15;;;;;;;;;;;;;;;;;;5075574;28;799;-66
2024/01/07 08:13:41;;;;;;;;;;;;;;;;;;5075728;28;1034;-65
2024/01/07 08:16:06;;;;;;;;;;;;;;;;;;5075350;28;1045;-66
2024/01/07 08:18:32;;;;;;;;;;;;;;;;;;5075934;28;855;-66
2024/01/07 08:20:57;;;;;;;;;;;;;;;;;;5075346;28;892;-67
2024/01/07 08:23:23;;;;;;;;;;;;;;;;;;5075714;28;1061;-65
2024/01/07 08:25:48;;;;;;;;;;;;;;;;;;5075145;28;1967;-66
2024/01/07 08:28:14;;;;;;;;;;;;;;;;;;5075918;28;844;-66
2024/01/07 08:30:39;;;;;;;;;;;;;;;;;;5057597;28;980;-66
2024/01/07 08:33:04;;;;;;;;;;;;;;;;;;5075363;28;911;-67
2024/01/07 08:35:30;;;;;;;;;;;;;;;;;;5075697;28;900;-66
2024/01/07 08:37:55;;;;;;;;;;;;;;;;;;5075412;28;880;-65
2024/01/07 08:40:20;;;;;;;;;;;;;;;;;;5075527;28;924;-66
2024/01/07 08:42:45;;;;;;;;;;;;;;;;;;5074606;28;1316;-66
2024/01/07 08:45:11;;;;;;;;;;;;;;;;;;5075184;28;1914;-65
2024/01/07 08:47:36;;;;;;;;;;;;;;;;;;5074997;28;888;-67
2024/01/07 08:50:03;;;;;;;;;;;;;;;;;;5074782;28;896;-66
2024/01/07 08:52:28;;;;;;;;;;;;;;;;;;5073649;28;932;-67
2024/01/07 08:54:53;;;;;;;;;;;;;;;;;;5074399;28;1018;-66
2024/01/07 08:57:19;;;;;;;;;;;;;;;;;;5074607;28;809;-66
2024/01/07 08:59:44;;;;;;;;;;;;;;;;;;5073866;28;911;-66
2024/01/07 09:02:09;;;;;;;;;;;;;;;;;;5074479;28;1054;-65
2024/01/07 09:04:34;;;;;;;;;;;;;;;;;;5073403;28;732;-65
2024/01/07 09:07:00;;;;;;;;;;;;;;;;;;5073806;28;1902;-66
2024/01/07 09:09:26;;;;;;;;;;;;;;;;;;5072960;28;1144;-66
2024/01/07 09:11:52;;;;;;;;;;;;;;;;;;5074414;28;814;-67
2024/01/07 09:14:17;;;;;;;;;;;;;;;;;;5074121;28;924;-66
2024/01/07 09:16:42;;;;;;;;;;;;;;;;;;5074279;28;991;-67
2024/01/07 09:19:07;;;;;;;;;;;;;;;;;;5073931;28;824;-66
2024/01/07 09:21:33;;;;;;;;;;;;;;;;;;5074104;28;774;-66
2024/01/07 09:23:59;;;;;;;;;;;;;;;;;;5074500;28;884;-67
2024/01/07 09:26:24;;;;;;;;;;;;;;;;;;5074174;28;1964;-67
2024/01/07 09:28:50;;;;;;;;;;;;;;;;;;5074117;28;1116;-67
2024/01/07 09:31:15;;;;;;;;;;;;;;;;;;5074289;28;935;-66
2024/01/07 09:33:40;;;;;;;;;;;;;;;;;;5073861;28;902;-66
2024/01/07 09:36:06;;;;;;;;;;;;;;;;;;5073812;28;867;-66
2024/01/07 09:38:32;;;;;;;;;;;;;;;;;;5072803;28;1014;-66
2024/01/07 09:40:57;;;;;;;;;;;;;;;;;;5073821;28;953;-66
2024/01/07 09:43:23;;;;;;;;;;;;;;;;;;5074117;28;1188;-67
2024/01/07 09:45:48;;;;;;;;;;;;;;;;;;5073401;28;1969;-67
2024/01/07 09:48:14;;;;;;;;;;;;;;;;;;5074017;28;972;-67
2024/01/07 09:50:40;;;;;;;;;;;;;;;;;;5073969;28;867;-67
2024/01/07 09:53:06;;;;;;;;;;;;;;;;;;5073605;28;908;-67
2024/01/07 09:55:46;;;;;;;;;;;;;;;;;;5074308;28;1032;-67
2024/01/07 09:58:11;;;;;;;;;;;;;;;;;;5074105;28;987;-67
2024/01/07 10:00:37;;;;;;;;;;;;;;;;;;5073710;28;908;-66
2024/01/07 10:03:03;;;;;;;;;;;;;;;;;;5073671;28;904;-67
2024/01/07 10:05:28;;;;;;;;;;;;;;;;;;5073878;28;1956;-67
2024/01/07 10:07:55;;;;;;;;;;;;;;;;;;5073683;28;809;-66
2024/01/07 10:10:20;;;;;;;;;;;;;;;;;;5076511;28;911;-66
2024/01/07 10:12:46;;;;;;;;;;;;;;;;;;5080056;28;1037;-67
2024/01/07 10:15:12;;;;;;;;;;;;;;;;;;5081148;28;880;-67
2024/01/07 10:17:38;;;;;;;;;;;;;;;;;;5080743;28;978;-66
2024/01/07 10:20:09;;;;;;;;;;;;;;;;;;5080504;28;824;-67
2024/01/07 10:22:35;;;;;;;;;;;;;;;;;;5080544;28;830;-67
2024/01/07 10:25:00;;;;;;;;;;;;;;;;;;5080445;28;1898;-66
2024/01/07 10:27:25;;;;;;;;;;;;;;;;;;5080161;28;856;-66
2024/01/07 10:29:51;;;;;;;;;;;;;;;;;;5079774;28;919;-66
2024/01/07 10:32:19;;;;;;;;;;;;;;;;;;5079927;28;894;-66
2024/01/07 10:34:46;;;;;;;;;;;;;;;;;;5080044;28;846;-67
2024/01/07 10:37:12;;;;;;;;;;;;;;;;;;5079721;28;931;-67
2024/01/07 10:39:38;;;;;;;;;;;;;;;;;;5080043;28;844;-67
2024/01/07 10:42:03;;;;;;;;;;;;;;;;;;5079634;28;817;-67
2024/01/07 10:44:30;;;;;;;;;;;;;;;;;;5080211;28;972;-67
2024/01/07 10:46:56;;;;;;;;;;;;;;;;;;5079528;28;1961;-67
2024/01/07 10:49:21;;;;;;;;;;;;;;;;;;5079546;28;891;-67
2024/01/07 10:52:07;;;;;;;;;;;;;;;;;;5078179;28;853;-66
2024/01/07 10:54:33;;;;;;;;;;;;;;;;;;5079742;28;889;-67
2024/01/07 10:57:00;;;;;;;;;;;;;;;;;;5079860;28;992;-66
2024/01/07 10:59:26;;;;;;;;;;;;;;;;;;5080591;28;964;-66
2024/01/07 11:01:52;;;;;;;;;;;;;;;;;;5079706;28;833;-66
2024/01/07 11:04:30;;;;;;;;;;;;;;;;;;5079880;28;970;-67
2024/01/07 11:07:00;;;;;;;;;;;;;;;;;;5079616;28;1875;-67
2024/01/07 11:09:35;;;;;;;;;;;;;;;;;;5080031;28;809;-66
2024/01/07 11:12:01;;;;;;;;;;;;;;;;;;5079826;28;2014;-66
2024/01/07 11:14:40;;;;;;;;;;;;;;;;;;5079656;28;809;-66
2024/01/07 11:17:06;;;;;;;;;;;;;;;;;;5080019;28;852;-66
2024/01/07 11:19:31;;;;;;;;;;;;;;;;;;5079826;28;919;-66
2024/01/07 11:22:15;;;;;;;;;;;;;;;;;;5077370;28;820;-67
2024/01/07 11:24:41;;;;;;;;;;;;;;;;;;5076344;28;852;-67
2024/01/07 11:27:08;;;;;;;;;;;;;;;;;;5074940;28;1967;-66
2024/01/07 11:29:33;;;;;;;;;;;;;;;;;;5076522;28;923;-67
2024/01/07 11:31:58;;;;;;;;;;;;;;;;;;5075533;28;920;-67
2024/01/07 11:35:04;;;;;;;;;;;;;;;;;;5076297;28;1113;-66
2024/01/07 11:37:29;;;;;;;;;;;;;;;;;;5054585;28;1254;-66
2024/01/07 11:39:57;;;;;;;;;;;;;;;;;;5054173;28;852;-67
2024/01/07 11:42:23;;;;;;;;;;;;;;;;;;5065017;28;1048;-67
2024/01/07 11:44:50;;;;;;;;;;;;;;;;;;5076329;28;814;-67
2024/01/07 11:47:19;;;;;;;;;;;;;;;;;;5077256;28;1894;-67
2024/01/07 11:49:45;;;;;;;;;;;;;;;;;;5076730;28;888;-68
2024/01/07 11:52:10;;;;;;;;;;;;;;;;;;5076833;28;813;-66
2024/01/07 11:54:37;;;;;;;;;;;;;;;;;;5076545;28;902;-67
2024/01/07 11:57:02;;;;;;;;;;;;;;;;;;5076211;28;824;-67
2024/01/07 11:59:29;;;;;;;;;;;;;;;;;;5076157;28;785;-68
2024/01/07 12:01:54;;;;;;;;;;;;;;;;;;5076476;28;1098;-67
2024/01/07 12:04:20;;;;;;;;;;;;;;;;;;5075110;28;908;-66
2024/01/07 12:06:45;;;;;;;;;;;;;;;;;;5076313;28;1890;-67
2024/01/07 12:09:12;;;;;;;;;;;;;;;;;;5076455;28;923;-66
2024/01/07 12:11:40;;;;;;;;;;;;;;;;;;5076931;28;919;-67
2024/01/07 12:14:06;;;;;;;;;;;;;;;;;;5074932;28;832;-66
2024/01/07 12:16:31;;;;;;;;;;;;;;;;;;5075753;28;1017;-66
2024/01/07 12:18:57;;;;;;;;;;;;;;;;;;5075631;28;948;-66
2024/01/07 12:21:22;;;;;;;;;;;;;;;;;;5075564;28;900;-66
2024/01/07 12:23:51;;;;;;;;;;;;;;;;;;5074414;28;1198;-66
2024/01/07 12:26:17;;;;;;;;;;;;;;;;;;5075630;28;1882;-66
2024/01/07 12:28:43;;;;;;;;;;;;;;;;;;5075258;28;908;-67
2024/01/07 12:31:09;;;;;;;;;;;;;;;;;;5075084;28;915;-66
2024/01/07 12:33:37;;;;;;;;;;;;;;;;;;5075404;28;868;-67
2024/01/07 12:36:02;;;;;;;;;;;;;;;;;;5075040;28;1203;-67
2024/01/07 12:38:28;;;;;;;;;;;;;;;;;;5075309;28;907;-67
2024/01/07 12:40:53;;;;;;;;;;;;;;;;;;5075319;28;999;-66
2024/01/07 12:43:19;;;;;;;;;;;;;;;;;;5074819;28;900;-66
2024/01/07 12:45:44;;;;;;;;;;;;;;;;;;5074430;28;1973;-66
2024/01/07 12:48:09;;;;;;;;;;;;;;;;;;5076790;28;1254;-67
2024/01/07 12:50:35;;;;;;;;;;;;;;;;;;5087653;28;1222;-66
2024/01/07 12:53:00;;;;;;;;;;;;;;;;;;5070693;28;1152;-66
2024/01/07 12:55:26;;;;;;;;;;;;;;;;;;5078547;28;1156;-66
2024/01/07 12:57:51;;;;;;;;;;;;;;;;;;5079556;28;1215;-66
2024/01/07 13:00:20;;;;;;;;;;;;;;;;;;5082252;28;1183;-67
2024/01/07 13:02:45;;;;;;;;;;;;;;;;;;5083390;28;1223;-67
2024/01/07 13:05:11;;;;;;;;;;;;;;;;;;5078759;28;1957;-66
2024/01/07 13:07:36;;;;;;;;;;;;;;;;;;5089609;28;1203;-66
2024/01/07 13:10:01;;;;;;;;;;;;;;;;;;5072132;28;1191;-67
2024/01/07 13:12:27;;;;;;;;;;;;;;;;;;5091736;28;1139;-66
2024/01/07 13:14:52;;;;;;;;;;;;;;;;;;5091418;28;1503;-67
2024/01/07 13:17:18;;;;;;;;;;;;;;;;;;5087174;28;1167;-66
2024/01/07 13:19:44;;;;;;;;;;;;;;;;;;5086422;28;1187;-67
2024/01/07 13:22:10;;;;;;;;;;;;;;;;;;5091546;28;1215;-68
2024/01/07 13:24:35;;;;;;;;;;;;;;;;;;5094423;28;935;-67
2024/01/07 13:27:01;;;;;;;;;;;;;;;;;;5094261;28;1910;-67
2024/01/07 13:29:26;;;;;;;;;;;;;;;;;;5094169;28;923;-67
2024/01/07 13:31:51;;;;;;;;;;;;;;;;;;5094228;28;975;-67
2024/01/07 13:34:17;;;;;;;;;;;;;;;;;;5094222;28;1269;-66
2024/01/07 13:36:43;;;;;;;;;;;;;;;;;;5094407;28;887;-68
2024/01/07 13:39:08;;;;;;;;;;;;;;;;;;5094251;28;817;-67
2024/01/07 13:41:34;;;;;;;;;;;;;;;;;;5095018;28;831;-67
2024/01/07 13:43:59;;;;;;;;;;;;;;;;;;5085231;28;1171;-67
2024/01/07 13:46:25;;;;;;;;;;;;;;;;;;5087235;28;1901;-66
2024/01/07 13:48:51;;;;;;;;;;;;;;;;;;5093010;28;899;-65
2024/01/07 13:51:17;;;;;;;;;;;;;;;;;;5092383;28;1037;-66
2024/01/07 13:53:42;;;;;;;;;;;;;;;;;;5094095;28;908;-68
2024/01/07 13:56:08;;;;;;;;;;;;;;;;;;5093807;28;1348;-66
2024/01/07 13:58:33;;;;;;;;;;;;;;;;;;5094092;28;825;-67
2024/01/07 14:00:59;;;;;;;;;;;;;;;;;;5094336;28;888;-66
2024/01/07 14:03:24;;;;;;;;;;;;;;;;;;5094140;28;872;-66
2024/01/07 14:05:51;;;;;;;;;;;;;;;;;;5093610;28;1901;-66
2024/01/07 14:08:16;;;;;;;;;;;;;;;;;;5094028;28;860;-66
2024/01/07 14:10:42;;;;;;;;;;;;;;;;;;5093558;28;919;-66
2024/01/07 14:13:07;;;;;;;;;;;;;;;;;;5092592;28;698;-66
2024/01/07 14:15:32;;;;;;;;;;;;;;;;;;5093264;28;821;-66
2024/01/07 14:17:58;;;;;;;;;;;;;;;;;;5093751;28;841;-67
2024/01/07 14:20:23;;;;;;;;;;;;;;;;;;5093854;28;812;-67
2024/01/07 14:22:48;;;;;;;;;;;;;;;;;;5093631;28;879;-67
2024/01/07 14:25:16;;;;;;;;;;;;;;;;;;5093201;28;1905;-67
2024/01/07 14:27:41;;;;;;;;;;;;;;;;;;5093575;28;883;-67
2024/01/07 14:30:06;;;;;;;;;;;;;;;;;;5093688;28;871;-67
2024/01/07 14:32:33;;;;;;;;;;;;;;;;;;5093702;28;999;-67
2024/01/07 14:34:58;;;;;;;;;;;;;;;;;;5093233;28;989;-66
2024/01/07 14:37:24;;;;;;;;;;;;;;;;;;5093659;28;861;-67
2024/01/07 14:39:49;;;;;;;;;;;;;;;;;;5094018;28;786;-67
2024/01/07 14:42:14;;;;;;;;;;;;;;;;;;5093551;28;809;-67
2024/01/07 14:44:40;;;;;;;;;;;;;;;;;;5093978;28;641;-67
2024/01/07 14:47:06;;;;;;;;;;;;;;;;;;5093435;28;1909;-68
2024/01/07 14:49:32;;;;;;;;;;;;;;;;;;5093845;28;860;-67
2024/01/07 14:51:57;;;;;;;;;;;;;;;;;;5093461;28;849;-68
2024/01/07 14:54:22;;;;;;;;;;;;;;;;;;5094289;28;875;-67
2024/01/07 14:56:48;;;;;;;;;;;;;;;;;;5094048;28;864;-67
2024/01/07 14:59:13;;;;;;;;;;;;;;;;;;5097744;28;845;-67
2024/01/07 15:01:41;;;;;;;;;;;;;;;;;;5097579;28;871;-67
2024/01/07 15:04:07;;;;;;;;;;;;;;;;;;5095931;28;1110;-67
2024/01/07 15:06:38;;;;;;;;;;;;;;;;;;5097217;28;1906;-67
2024/01/07 15:09:04;;;;;;;;;;;;;;;;;;5097299;28;994;-67
2024/01/07 15:11:29;;;;;;;;;;;;;;;;;;5097671;28;817;-67
2024/01/07 15:13:54;;;;;;;;;;;;;;;;;;5097490;28;1049;-67
2024/01/07 15:16:20;;;;;;;;;;;;;;;;;;5097641;28;1122;-67
2024/01/07 15:18:45;;;;;;;;;;;;;;;;;;5097918;28;923;-67
2024/01/07 15:21:11;;;;;;;;;;;;;;;;;;5096301;28;876;-67
2024/01/07 15:23:36;;;;;;;;;;;;;;;;;;5097403;28;895;-66
2024/01/07 15:26:01;;;;;;;;;;;;;;;;;;5097084;28;1898;-67
2024/01/07 15:28:28;;;;;;;;;;;;;;;;;;5097396;28;930;-67
2024/01/07 15:30:53;;;;;;;;;;;;;;;;;;5096256;28;1259;-67
2024/01/07 15:33:18;;;;;;;;;;;;;;;;;;5096612;28;904;-66
2024/01/07 15:35:44;;;;;;;;;;;;;;;;;;5096938;28;836;-66
2024/01/07 15:38:09;;;;;;;;;;;;;;;;;;5096074;28;1105;-66
2024/01/07 15:40:34;;;;;;;;;;;;;;;;;;5096224;28;875;-66
2024/01/07 15:43:00;;;;;;;;;;;;;;;;;;5095989;28;983;-65
2024/01/07 15:45:25;;;;;;;;;;;;;;;;;;5096066;28;1941;-65
2024/01/07 15:47:50;;;;;;;;;;;;;;;;;;5095374;28;900;-66
2024/01/07 15:50:15;;;;;;;;;;;;;;;;;;5096129;28;884;-66
2024/01/07 15:52:46;;;;;;;;;;;;;;;;;;5094508;28;1316;-66
2024/01/07 15:55:11;;;;;;;;;;;;;;;;;;5096001;28;1053;-66
2024/01/07 15:57:36;;;;;;;;;;;;;;;;;;5096209;28;923;-66
2024/01/07 16:00:03;;;;;;;;;;;;;;;;;;5094780;28;840;-66
2024/01/07 16:02:28;;;;;;;;;;;;;;;;;;5094999;28;947;-65
2024/01/07 16:04:54;;;;;;;;;;;;;;;;;;5094836;28;891;-66
2024/01/07 16:07:19;;;;;;;;;;;;;;;;;;5094041;28;1972;-66
2024/01/07 16:09:45;;;;;;;;;;;;;;;;;;5095033;28;1268;-67
2024/01/07 16:12:13;;;;;;;;;;;;;;;;;;5096174;28;895;-66
2024/01/07 16:14:42;;;;;;;;;;;;;;;;;;5094523;28;902;-66
2024/01/07 16:17:08;;;;;;;;;;;;;;;;;;5094822;28;851;-66
2024/01/07 16:19:33;;;;;;;;;;;;;;;;;;5094457;28;943;-66
2024/01/07 16:21:59;;;;;;;;;;;;;;;;;;5095227;28;935;-66
2024/01/07 16:24:25;;;;;;;;;;;;;;;;;;5095104;28;820;-65
2024/01/07 16:26:50;;;;;;;;;;;;;;;;;;5094930;28;1971;-65
2024/01/07 16:29:15;;;;;;;;;;;;;;;;;;5093945;28;895;-65
2024/01/07 16:31:41;;;;;;;;;;;;;;;;;;5095023;28;868;-65
2024/01/07 16:34:06;;;;;;;;;;;;;;;;;;5077269;28;832;-66
2024/01/07 16:36:32;;;;;;;;;;;;;;;;;;5094994;28;1019;-66
2024/01/07 16:38:57;;;;;;;;;;;;;;;;;;5095149;28;865;-67
2024/01/07 16:41:22;;;;;;;;;;;;;;;;;;5094114;28;1027;-65
2024/01/07 16:43:48;;;;;;;;;;;;;;;;;;5095381;28;964;-66
2024/01/07 16:46:13;;;;;;;;;;;;;;;;;;5076755;28;1907;-65
2024/01/07 16:48:42;;;;;;;;;;;;;;;;;;5095252;28;927;-66
2024/01/07 16:51:12;;;;;;;;;;;;;;;;;;5095424;28;876;-67
2024/01/07 16:53:38;;;;;;;;;;;;;;;;;;5093321;28;1018;-67
2024/01/07 16:56:03;;;;;;;;;;;;;;;;;;5094846;28;896;-67
2024/01/07 16:58:28;;;;;;;;;;;;;;;;;;5094595;28;836;-66
2024/01/07 17:00:57;;;;;;;;;;;;;;;;;;5094759;28;864;-66
2024/01/07 17:03:22;;;;;;;;;;;;;;;;;;5094489;28;887;-66
2024/01/07 17:05:47;;;;;;;;;;;;;;;;;;5093935;28;1906;-67